Aérodrome :
LOGIN :

S'inscrire | Disclaimer

   EN    FR    IT 

 










Légende :    VFR   VFR Marginal   IFR   IFR Intensif   IFR Très Intensif
Visi : 
Plafond : 
>= 8 km
>= 3000ft
5 à 8 km
1000 à 3000 ft
1500m à 5 km
500 à 1000 ft
800 à 1500m
200 à 500 ft
< 800m
< 200 ft
Symboles :   Orages  Brouillard  Fortes neiges  Fortes précipitations  Vent > 20 kt
SIGMETs :   Divers  Orages  Givrage  Turbulence  Onde Orograph.  Cendres Volcan.






- Altitude de l'aérodrome : 465 ft
- Code IATA : LEJ


EDDP - Leipzig Halle

DERNIER METAR :
  • 230720Z 08007KT 040V110 4500 BR SCT003 SCT037 09/08 Q1020 TEMPO 2500 BR BKN003

METARs EXPIRÉS :
  • 230650Z 09006KT 4500 BR NSC 09/08 Q1020 TEMPO 2500 BR BKN006
  • 230620Z 06006KT 4500 BR FEW006 08/08 Q1021 TEMPO 2500 BR BKN004
  • 230550Z 04005KT 4500 BR SCT006 08/08 Q1021 TEMPO 2500 BR BKN004
  • 230520Z 04006KT 4500 BR BKN006 08/08 Q1021 TEMPO 2500 BR BKN004
  • 230450Z 03004KT 4500 BR FEW006 07/07 Q1021 TEMPO 2500 BR BKN006

TAF TAF EDDP
Valide du 23 à 06h jusqu'au 24 à 06h UTC


230500Z 2306/2406 03005KT 4000 BR BKN006
TEMPO 2306/2309 2000 BR OVC003
PROB40
TEMPO 2306/2308 0300 FG OVC001
BECMG 2308/2312 12006KT 8000 BKN015
TEMPO 2400/2406 1200 BCFG
PROB40
TEMPO 2403/2406 0300 FG OVC001



MET'MAP, la Météo Aéronautique d'un coup d'oeil ! - Copyright ORBIFLY Décembre 2007 - Disclaimer

ORBIFLY MET'MAP TEAM :

Programmation & Développement : Alexandra Zaïnal
Conception & Développement : Baudouin d'Aumeries
Co-Programmation & Développement : Marc-Olivier Méhu
Soutien technique & logistique : Manuel Goepfert

Contact : metmap@orbifly.com




SOURCES & CREDITS :

   NOAA